首页
METAR-TAF:

METAR-TAF

机场 :

Mount Vernon Airport

Mount Vernon, 伊利诺伊州, 美国

纬度: 38-19N, 经度: 088-52W, 海拔: 146米

当前天气观测

该预报发布于44分钟前的04:56 UTC
静风
温度
气压 1004 hPa
能見度: 0.8公里
阴天层高于300英尺

METAR: KMVN 260456Z AUTO 00000KT 1/2SM FG OVC003 A2965 RMK AO2 SLPNO FZRANO

时间: 23:40 (05:40 UTC)

预报

该预报发布于16分钟前的05:24 UTC
预报有效从26日的 06点(UTC)到 27日的 06点(UTC)
风速节,风向
能見度: 2.4公里
阴天层高于300英尺
轻雾
从 26日的 1200点(UTC)
风速4节,风向多变
能見度: 1.6公里
多云层高于500英尺
轻雾
从 26日的 1300点(UTC)
风速5节,风向西南
能見度: 1.6公里
多云层高于900英尺
轻雾
从 26日的 1600点(UTC)
风速9节,风向西
能見度: 10公里
多云层高于1000英尺
从 26日的 1900点(UTC)
风速10节,风向西,有时为18节阵风
能見度: 10公里
多云层高于1300英尺
从 26日的 2000点(UTC)
风速10节,风向西
能見度: 10公里
多云层高于1500英尺
从 27日的 0000点(UTC)
风速7节,风向西转西北
能見度: 10公里
阴天层高于1600英尺
从 27日的 0200点(UTC)
风速4节,风向多变
能見度: 10公里
多云层高于1400英尺

TAF: KMVN 260524Z 2606/2706 00000KT 1 1/2SM BR OVC003 FM261200 VRB04KT 5SM BR BKN005 FM261300 23005KT 6SM BR BKN009 FM261600 26009KT P6SM BKN010 FM261900 27010G18KT P6SM BKN013 FM262000 27010KT P6SM BKN015 FM270000 30007KT P6SM OVC016 FM270200 VRB04KT P6SM BKN014 AMD NOT SKED

超过4000个机场的气象观测和天气预报(METAR&TAF报告)。

可查询的气象台以黄色和红色小点在地图上表示。

将鼠标移到小点上方,可查看气象台名称。

然后点击查看天气观测和预报。

如需切换地图:点击带黑十字的绿色按钮放大地图;点击带横线的绿色按钮缩小地图;或者点击绿色箭头查看邻近地区的地图。


METAR-TAF: